Latest Weather Observations for Scotts Peak

IDT60801

Issued at 12:32 pm EDT Friday 20 January 2017 (issued every 30 minutes, with the page automatically refreshed every 10 minutes)

About weather observations | Map of weather stations | Latest weather observations for TAS | Other Formats
Station Details ID: 097083 Name: SCOTTS PEAK DAM Lat: -43.04 Lon: 146.27 Height: 408.0 m
Data from the previous 72 hours. | See also: Recent months at Scotts Peak
Date/Time
EDT
Temp
°C
App
Temp
°C
Dew
Point
°C
Rel
Hum
%
Delta-T
°C
Wind Press
QNH
hPa
Press
MSL
hPa
Rain since
9am
mm
Dir  Spd
km/h
Gust
km/h
Spd
kts
Gust
kts
20/12:30pm 10.8 8.6 10.8 100 0.0 SE 13 19 7 10 - - 3.6
20/12:00pm 9.9 7.5 9.9 100 0.0 SSE 13 17 7 9 - - 3.2
20/11:30am 9.8 7.3 9.8 100 0.0 SSE 13 20 7 11 - - 2.6
20/11:00am 9.8 7.7 9.8 100 0.0 S 11 17 6 9 - - 2.0
20/10:30am 9.3 7.1 9.3 100 0.0 SSE 11 17 6 9 - - 1.2
20/10:00am 8.9 5.4 8.9 100 0.0 SSE 17 24 9 13 - - 0.8
20/09:30am 8.9 6.6 8.9 100 0.0 SSE 11 15 6 8 - - 0.2
20/09:00am 8.7 5.6 8.7 100 0.0 SSE 15 20 8 11 - - 8.4
20/08:30am 8.6 5.1 8.6 100 0.0 SSE 17 24 9 13 - - 7.8
20/08:00am 8.7 6.7 8.7 100 0.0 S 9 13 5 7 - - 7.0
20/07:30am 8.6 6.6 8.6 100 0.0 SSE 9 13 5 7 - - 6.4
20/07:00am 8.5 6.1 8.5 100 0.0 SE 11 17 6 9 - - 6.2
20/06:30am 8.4 6.3 8.4 100 0.0 S 9 13 5 7 - - 5.6
20/06:00am 8.5 6.5 8.5 100 0.0 S 9 13 5 7 - - 5.2
20/05:30am 8.4 6.7 8.4 100 0.0 SW 7 11 4 6 - - 3.8
20/05:00am 8.5 4.9 8.5 100 0.0 ESE 17 24 9 13 - - 3.8
20/04:30am 8.4 5.5 8.3 99 0.0 SSE 13 22 7 12 - - 3.6
20/04:00am 8.6 6.6 8.5 99 0.0 SSE 9 13 5 7 - - 2.8
20/03:30am 8.5 6.8 8.4 99 0.0 S 7 11 4 6 - - 2.0
20/03:00am 8.8 6.6 8.0 95 0.4 SSW 9 15 5 8 - - 1.4
20/02:30am 9.4 7.0 7.2 86 1.1 SSW 9 15 5 8 - - 0.2
20/02:00am 9.5 6.7 6.9 84 1.2 S 11 13 6 7 - - 0.2
20/01:30am 9.4 6.2 6.8 84 1.2 S 13 19 7 10 - - 0.2
20/01:00am 9.5 5.9 6.8 83 1.3 SSE 15 20 8 11 - - 0.2
20/12:30am 9.6 6.4 6.7 82 1.4 S 13 19 7 10 - - 0.2
20/12:00am 9.7 6.4 6.6 81 1.5 SSE 13 20 7 11 - - 0.2
 
Date/Time
EDT
Temp
°C
App
Temp
°C
Dew
Point
°C
Rel
Hum
%
Delta-T
°C
Wind Press
QNH
hPa
Press
MSL
hPa
Rain since
9am
mm
Dir  Spd
km/h
Gust
km/h
Spd
kts
Gust
kts
19/11:30pm 9.8 5.7 6.3 79 1.7 SSE 17 22 9 12 - - 0.2
19/11:00pm 10.0 6.7 6.2 77 1.8 SSE 13 19 7 10 - - 0.2
19/10:30pm 10.3 6.2 6.1 75 2.0 SSE 17 22 9 12 - - 0.2
19/10:00pm 10.7 5.6 5.9 72 2.3 SSE 22 30 12 16 - - 0.2
19/09:30pm 11.2 6.0 5.7 69 2.6 SSE 22 28 12 15 - - 0.2
19/09:00pm 12.1 7.9 5.9 66 3.0 SSE 17 22 9 12 - - 0.2
19/08:30pm 13.1 8.5 6.7 65 3.1 SSE 20 24 11 13 - - 0.2
19/08:00pm 13.4 8.5 6.7 64 3.3 SSW 22 30 12 16 - - 0.2
19/07:30pm 14.3 9.4 6.9 61 3.7 SW 22 30 12 16 - - 0.2
19/07:00pm 15.0 8.1 6.6 57 4.2 SW 32 39 17 21 - - 0.2
19/06:30pm 17.3 11.3 7.1 51 5.2 SW 28 33 15 18 - - 0.2
19/06:00pm 18.2 13.3 7.0 48 5.7 SW 22 32 12 17 - - 0.2
19/05:30pm 20.2 15.6 5.8 39 7.3 WSW 19 30 10 16 - - 0.2
19/05:00pm 22.6 18.8 6.0 34 8.6 NW 15 20 8 11 - - 0.2
19/04:30pm 22.1 17.9 5.5 34 8.5 NW 17 20 9 11 - - 0.2
19/04:00pm 21.0 17.7 6.5 39 7.5 WNW 13 17 7 9 - - 0.2
19/03:30pm 21.2 17.6 5.1 35 8.1 NW 13 17 7 9 - - 0.2
19/03:00pm 22.0 18.8 6.7 37 8.0 NW 13 15 7 8 - - 0.2
19/02:30pm 21.0 17.0 6.5 39 7.5 NW 17 19 9 10 - - 0.2
19/02:00pm 20.7 17.3 9.3 48 6.2 NW 17 20 9 11 - - 0.2
19/01:30pm 18.6 14.6 4.8 40 6.8 NW 15 19 8 10 - - 0.2
19/01:00pm 20.4 16.8 8.4 46 6.4 NNW 17 22 9 12 - - 0.2
19/12:30pm 18.9 15.5 7.7 48 5.8 NW 15 20 8 11 - - 0.2
19/12:00pm 15.6 12.7 4.9 49 5.2 NW 9 11 5 6 - - 0.2
19/11:30am 14.5 11.6 4.8 52 4.6 W 9 15 5 8 - - 0.2
19/11:00am 13.6 10.9 3.9 52 4.5 NW 7 17 4 9 - - 0.2
19/10:30am 13.6 11.1 4.5 54 4.3 NW 7 11 4 6 - - 0.2
19/10:00am 12.0 8.8 3.0 54 4.0 SE 9 15 5 8 - - 0.2
19/09:30am 12.0 8.2 3.8 57 3.8 SE 13 20 7 11 - - 0.2
19/09:00am 9.9 7.2 3.9 66 2.7 SSW 7 13 4 7 - - 1.4
19/08:30am 9.8 6.5 4.4 69 2.5 SE 11 13 6 7 - - 1.4
19/08:00am 9.2 6.6 4.0 70 2.3 SW 7 17 4 9 - - 1.4
19/07:30am 7.6 4.2 4.0 78 1.6 SW 11 15 6 8 - - 1.4
19/07:00am 7.1 3.9 4.9 86 1.0 WSW 11 15 6 8 - - 1.4
19/06:30am 6.4 3.0 4.2 86 1.0 WSW 11 13 6 7 - - 1.4
19/06:00am 6.5 2.8 4.2 85 1.0 W 13 15 7 8 - - 1.4
19/05:30am 6.3 2.9 4.1 86 1.0 WSW 11 13 6 7 - - 1.4
19/05:00am 6.1 2.3 3.8 85 1.0 WSW 13 15 7 8 - - 1.4
19/04:30am 6.5 3.0 3.7 82 1.2 W 11 13 6 7 - - 1.4
19/04:00am 6.9 3.9 3.9 81 1.3 WNW 9 11 5 6 - - 1.4
19/03:30am 7.1 3.2 3.5 78 1.6 W 13 19 7 10 - - 1.4
19/03:00am 7.4 3.2 3.6 77 1.7 W 15 20 8 11 - - 1.4
19/02:30am 7.7 3.3 4.5 80 1.4 W 17 24 9 13 - - 1.4
19/02:00am 7.7 3.8 5.2 84 1.1 WSW 15 20 8 11 - - 1.4
19/01:30am 7.9 4.9 5.9 87 0.9 W 11 15 6 8 - - 1.4
19/01:00am 7.8 4.4 5.9 88 0.9 W 13 20 7 11 - - 1.4
19/12:30am 7.9 4.5 5.9 87 0.9 W 13 19 7 10 - - 1.4
19/12:00am 8.0 4.5 5.6 85 1.1 W 13 15 7 8 - - 1.4
 
Date/Time
EDT
Temp
°C
App
Temp
°C
Dew
Point
°C
Rel
Hum
%
Delta-T
°C
Wind Press
QNH
hPa
Press
MSL
hPa
Rain since
9am
mm
Dir  Spd
km/h
Gust
km/h
Spd
kts
Gust
kts
18/11:30pm 7.8 4.3 5.6 86 1.0 W 13 17 7 9 - - 1.4
18/11:00pm 7.5 4.0 5.5 87 0.9 WSW 13 15 7 8 - - 1.4
18/10:30pm 7.9 3.3 5.5 85 1.1 WSW 19 24 10 13 - - 1.4
18/10:00pm 8.3 4.6 6.4 88 0.9 WSW 15 20 8 11 - - 1.4
18/09:30pm 8.5 4.5 6.5 87 0.9 WSW 17 26 9 14 - - 1.4
18/09:00pm 8.5 4.9 6.8 89 0.8 WSW 15 22 8 12 - - 1.4
18/08:30pm 8.5 2.8 6.8 89 0.8 W 26 37 14 20 - - 1.4
18/08:00pm 9.1 5.0 6.4 83 1.3 W 17 26 9 14 - - 1.4
18/07:30pm 9.2 5.4 5.9 80 1.5 WSW 15 24 8 13 - - 1.4
18/07:00pm 9.8 5.1 5.2 73 2.1 WSW 19 35 10 19 - - 1.4
18/06:30pm 10.5 5.3 3.8 63 3.0 W 20 37 11 20 - - 1.4
18/06:00pm 10.5 5.1 4.4 66 2.8 WSW 22 44 12 24 - - 1.4
18/05:30pm 10.5 5.5 4.6 67 2.7 SW 20 41 11 22 - - 1.4
18/05:00pm 10.6 3.4 4.9 68 2.6 SW 32 46 17 25 - - 1.4
18/04:30pm 11.1 4.0 3.6 60 3.4 SW 30 54 16 29 - - 1.4
18/04:00pm 10.8 3.9 4.5 65 2.9 WSW 30 54 16 29 - - 1.4
18/03:32pm 10.3 3.9 5.1 70 2.4 W 28 50 15 27 - - 1.4
18/03:30pm 10.7 4.6 5.0 68 2.6 W 26 50 14 27 - - 1.4
18/03:04pm 10.5 4.3 6.1 74 2.1 W 28 46 15 25 - - 1.4
18/03:00pm 11.2 5.9 4.9 65 2.9 WSW 22 44 12 24 - - 1.4
18/02:30pm 12.3 5.8 6.4 67 2.9 W 30 56 16 30 - - 1.4
18/02:00pm 10.5 3.4 5.3 70 2.4 WSW 32 54 17 29 - - 1.4
18/01:30pm 12.4 4.3 3.4 54 4.1 W 35 57 19 31 - - 1.4
18/01:00pm 11.4 2.7 6.1 70 2.5 W 41 70 22 38 - - 1.4
18/12:48pm 11.4 4.1 5.5 67 2.8 WSW 33 63 18 34 - - 1.4
18/12:42pm 11.0 2.9 5.3 68 2.7 WSW 37 67 20 36 - - 1.4
18/12:30pm 11.2 3.0 4.9 65 2.9 W 37 59 20 32 - - 1.4
18/12:07pm 9.6 1.9 5.4 75 2.0 W 35 67 19 36 - - 1.4
18/12:00pm 10.2 3.9 5.6 73 2.2 WSW 28 46 15 25 - - 1.0
18/11:33am 10.1 2.7 5.1 71 2.3 WSW 33 54 18 29 - - 1.0
18/11:30am 11.0 4.0 6.2 72 2.3 WSW 32 52 17 28 - - 1.0
18/11:00am 9.6 2.9 5.6 76 1.9 W 30 54 16 29 - - 1.0
18/10:30am 9.7 3.7 7.1 84 1.3 W 28 54 15 29 - - 0.8
18/10:00am 8.9 2.4 6.7 86 1.0 WSW 30 54 16 29 - - 0.8
18/09:31am 9.1 4.5 6.4 83 1.3 W 20 46 11 25 - - 0.4
18/09:30am 9.3 4.9 6.4 82 1.4 W 19 44 10 24 - - 0.4
18/09:25am 9.7 6.2 7.3 85 1.2 WSW 15 28 8 15 - - 0.0
18/09:00am 8.4 0.0 5.7 83 1.3 W 39 65 21 35 - - 3.2
18/08:30am 9.1 2.1 6.7 85 1.1 W 33 72 18 39 - - 3.2
18/08:00am 8.5 -0.5 6.3 86 1.0 WNW 43 65 23 35 - - 3.0
18/07:30am 8.4 -2.0 5.9 84 1.2 W 50 83 27 45 - - 3.0
18/07:20am 8.1 -2.4 5.4 83 1.2 W 50 89 27 48 - - 3.0
18/07:00am 7.6 -2.3 6.7 94 0.4 W 48 69 26 37 - - 3.0
18/06:30am 8.3 -0.5 5.6 83 1.2 W 41 61 22 33 - - 2.6
18/06:00am 7.8 -2.4 5.1 83 1.2 W 48 72 26 39 - - 2.6
18/05:31am 8.0 -1.2 6.3 89 0.8 W 44 72 24 39 - - 2.0
18/05:30am 8.1 -0.9 6.6 90 0.7 W 43 59 23 32 - - 2.0
18/05:00am 8.0 -1.3 6.1 88 0.9 W 44 65 24 35 - - 1.8
18/04:44am 8.0 -1.2 6.3 89 0.8 W 44 67 24 36 - - 1.6
18/04:32am 8.2 -3.3 7.3 94 0.4 W 57 85 31 46 - - 1.6
18/04:30am 8.3 -3.2 7.2 93 0.5 W 57 85 31 46 - - 1.6
18/04:26am 8.0 -3.6 5.8 86 1.0 W 56 85 30 46 - - 1.4
18/04:25am 8.5 -3.1 5.8 83 1.3 W 56 85 30 46 - - 1.2
18/04:02am 8.5 -2.0 7.3 92 0.6 WNW 52 70 28 38 - - 1.0
18/04:00am 8.5 -2.0 7.3 92 0.6 WNW 52 65 28 35 - - 1.0
18/03:30am 8.7 -2.2 7.3 91 0.7 WNW 54 72 29 39 - - 1.0
18/03:12am 9.2 -0.6 8.6 96 0.3 WNW 50 69 27 37 - - 0.6
18/03:00am 9.3 0.7 8.7 96 0.3 WNW 44 61 24 33 - - 0.4
18/02:51am 9.6 1.6 9.0 96 0.3 WNW 41 59 22 32 - - 0.2
18/02:30am 10.2 1.3 7.6 84 1.3 WNW 44 59 24 32 - - 0.2
18/02:00am 10.1 0.9 7.9 86 1.1 NW 46 59 25 32 - - 0.2
18/01:30am 10.1 1.9 6.6 79 1.7 WNW 39 46 21 25 - - 0.2
18/01:00am 10.1 2.3 8.2 88 0.9 WNW 39 46 21 25 - - 0.2
18/12:35am 10.4 2.8 9.2 92 0.6 NW 39 61 21 33 - - 0.2
18/12:30am 10.5 4.1 9.4 93 0.6 NW 33 46 18 25 - - 0.2
18/12:00am 10.4 4.5 9.2 92 0.6 NW 30 35 16 19 - - 0.2
 
Date/Time
EDT
Temp
°C
App
Temp
°C
Dew
Point
°C
Rel
Hum
%
Delta-T
°C
Wind Press
QNH
hPa
Press
MSL
hPa
Rain since
9am
mm
Dir  Spd
km/h
Gust
km/h
Spd
kts
Gust
kts
17/11:35pm 10.4 4.5 9.2 92 0.6 NW 30 48 16 26 - - 0.2
17/11:30pm 10.7 4.8 9.0 89 0.9 WNW 30 44 16 24 - - 0.2
17/11:00pm 11.2 5.1 10.4 95 0.4 WNW 33 43 18 23 - - 0.2
17/10:30pm 11.9 5.6 11.0 94 0.5 W 35 50 19 27 - - 0.0
17/10:29pm 11.9 5.6 11.0 94 0.5 WNW 35 50 19 27 - - 0.0
17/10:00pm 12.5 6.0 11.7 95 0.4 NW 37 46 20 25 - - 0.0
17/09:30pm 12.5 6.9 11.4 93 0.6 WNW 32 43 17 23 - - 0.0
17/09:06pm 12.3 5.0 11.7 96 0.3 WNW 41 59 22 32 - - 0.0
17/09:00pm 12.4 4.7 11.5 94 0.5 WNW 43 54 23 29 - - 0.0
17/08:30pm 12.3 4.6 12.0 98 0.2 WNW 44 61 24 33 - - 0.0
17/08:28pm 12.3 4.7 11.8 97 0.3 WNW 43 61 23 33 - - 0.0
17/08:00pm 12.9 5.0 12.6 98 0.2 WNW 46 59 25 32 - - 0.0
17/07:44pm 13.0 7.1 12.5 97 0.3 WNW 35 54 19 29 - - 0.0
17/07:30pm 13.0 9.2 12.4 96 0.3 NW 24 32 13 17 - - 0.0
17/07:00pm 13.2 10.1 12.3 94 0.5 NW 20 28 11 15 - - 0.0
17/06:30pm 13.6 10.5 12.3 92 0.7 NW 20 28 11 15 - - 0.0
17/06:00pm 13.8 10.0 11.1 84 1.5 WNW 22 28 12 15 - - 0.0
17/05:30pm 14.0 8.3 11.0 82 1.6 WNW 32 39 17 21 - - 0.0
17/05:00pm 14.3 8.5 10.9 80 1.8 WNW 32 39 17 21 - - 0.0
17/04:30pm 14.3 8.6 11.3 82 1.6 NW 32 41 17 22 - - 0.0
17/04:00pm 14.3 7.8 10.5 78 2.0 WNW 35 44 19 24 - - 0.0
17/03:50pm 14.4 8.6 10.8 79 1.9 NW 32 46 17 25 - - 0.0
17/03:30pm 14.6 10.7 10.8 78 2.0 WNW 22 28 12 15 - - 0.0
17/03:00pm 14.6 9.6 11.0 79 1.9 WNW 28 33 15 18 - - 0.0
17/02:30pm 14.8 9.3 10.6 76 2.3 WNW 30 39 16 21 - - 0.0
17/02:00pm 14.9 7.7 10.7 76 2.3 WNW 39 50 21 27 - - 0.0
17/01:30pm 14.9 8.1 10.5 75 2.4 WNW 37 50 20 27 - - 0.0
17/01:00pm 15.2 10.3 11.2 77 2.2 NW 28 37 15 20 - - 0.0

Other Formats:

Comma delimited format used in spreadsheet applications
http://www.bom.gov.au/fwo/IDT60801/IDT60801.95958.axf

JavaScript Object Notation format (JSON) in row-major order
http://www.bom.gov.au/fwo/IDT60801/IDT60801.95958.json